createdAt,value
2023-02-14T00:01:45.652Z,11.65
2023-02-14T00:06:44.281Z,11.80
2023-02-14T00:09:14.782Z,12.95
2023-02-14T00:11:43.321Z,12.50
2023-02-14T00:14:30.504Z,11.13
2023-02-14T00:16:59.108Z,11.75
2023-02-14T00:19:28.785Z,12.10
2023-02-14T00:21:57.145Z,11.57
2023-02-14T00:24:27.251Z,11.93
2023-02-14T00:26:56.086Z,12.35
2023-02-14T00:29:28.534Z,12.43
2023-02-14T00:34:26.152Z,12.55
2023-02-14T00:36:55.887Z,12.10
2023-02-14T00:39:25.613Z,12.40
2023-02-14T00:41:53.920Z,12.85
2023-02-14T00:44:22.686Z,11.98
2023-02-14T00:46:50.990Z,12.43
2023-02-14T00:49:19.513Z,12.90
2023-02-14T00:51:47.808Z,12.63
2023-02-14T00:54:17.453Z,12.02
2023-02-14T00:56:45.803Z,11.02
2023-02-14T00:59:14.061Z,12.68
2023-02-14T01:01:43.596Z,12.55
2023-02-14T01:04:11.860Z,12.15
2023-02-14T01:06:40.091Z,12.27
2023-02-14T01:09:09.307Z,11.77
2023-02-14T01:11:39.404Z,12.63
2023-02-14T01:14:08.202Z,13.20
2023-02-14T01:16:37.158Z,12.38
2023-02-14T01:19:05.503Z,12.10
2023-02-14T01:21:35.293Z,11.95
2023-02-14T01:24:06.152Z,11.43
2023-02-14T01:26:35.873Z,11.85
2023-02-14T01:29:06.065Z,11.73
2023-02-14T01:31:36.142Z,11.00
2023-02-14T01:34:04.954Z,11.00
2023-02-14T01:36:36.175Z,10.90
2023-02-14T01:39:07.434Z,11.30
2023-02-14T01:41:38.785Z,11.15
2023-02-14T01:44:47.021Z,11.02
2023-02-14T01:47:18.315Z,10.70
2023-02-14T01:49:50.731Z,11.00
2023-02-14T01:52:21.266Z,11.32
2023-02-14T01:54:53.406Z,11.32
2023-02-14T01:57:23.494Z,11.57
2023-02-14T01:59:54.675Z,11.77
2023-02-14T02:02:24.602Z,10.43
2023-02-14T02:04:56.243Z,11.50
2023-02-14T02:07:30.320Z,10.45
2023-02-14T02:10:02.347Z,11.95
2023-02-14T02:12:31.785Z,11.00
2023-02-14T02:15:01.203Z,10.93
2023-02-14T02:17:39.319Z,11.88
2023-02-14T02:20:37.222Z,11.27
2023-02-14T02:23:57.460Z,11.65
2023-02-14T02:26:50.256Z,12.10
2023-02-14T02:29:51.969Z,12.07
2023-02-14T02:32:59.785Z,11.57
2023-02-14T02:35:55.214Z,11.85
2023-02-14T02:38:40.059Z,10.70
2023-02-14T02:41:19.224Z,11.02
2023-02-14T03:27:53.933Z,11.32
2023-02-14T03:30:29.129Z,10.35
2023-02-14T03:33:02.717Z,10.88
2023-02-14T03:35:36.434Z,10.25
2023-02-14T03:38:09.454Z,10.20
2023-02-14T03:40:42.977Z,10.45
2023-02-14T03:43:20.460Z,10.50
2023-02-14T03:45:54.382Z,10.40
2023-02-14T03:48:25.147Z,10.15
2023-02-14T03:50:54.985Z,10.40
2023-02-14T03:53:29.544Z,10.40
2023-02-14T03:56:04.508Z,8.85
2023-02-14T03:58:39.320Z,10.20
2023-02-14T04:01:12.852Z,9.63
2023-02-14T04:03:43.430Z,9.70
2023-02-14T04:06:11.685Z,9.82
2023-02-14T04:08:39.957Z,9.50
2023-02-14T04:11:08.419Z,9.90
2023-02-14T04:13:39.479Z,9.85
2023-02-14T04:16:08.585Z,9.98
2023-02-14T04:18:54.046Z,9.85
2023-02-14T04:21:22.279Z,10.50
2023-02-14T04:23:50.546Z,9.82
2023-02-14T04:26:18.852Z,10.30
2023-02-14T04:28:49.528Z,10.18
2023-02-14T04:31:17.891Z,10.75
2023-02-14T04:33:48.143Z,10.15
2023-02-14T04:36:16.498Z,9.80
2023-02-14T04:38:44.699Z,10.93
2023-02-14T04:41:12.868Z,10.07
2023-02-14T04:43:41.152Z,9.38
2023-02-14T04:46:10.717Z,9.52
2023-02-14T04:48:38.953Z,9.98
2023-02-14T04:51:07.135Z,9.95
2023-02-14T04:53:40.281Z,9.55
2023-02-14T04:56:09.175Z,9.80
2023-02-14T04:58:37.381Z,10.50
2023-02-14T05:01:05.700Z,9.75
2023-02-14T05:03:35.377Z,9.88
2023-02-14T05:06:03.670Z,9.45
2023-02-14T05:08:32.024Z,10.05
2023-02-14T05:11:00.445Z,9.68
2023-02-14T05:13:29.061Z,9.48
2023-02-14T05:15:57.270Z,10.02
2023-02-14T05:18:25.721Z,9.85
2023-02-14T05:20:55.987Z,10.05
2023-02-14T05:23:24.246Z,9.45
2023-02-14T05:25:53.260Z,9.63
2023-02-14T05:28:21.546Z,10.20
2023-02-14T05:30:51.773Z,10.10
2023-02-14T05:33:20.182Z,9.68
2023-02-14T05:35:48.412Z,9.30
2023-02-14T05:38:18.046Z,9.82
2023-02-14T05:40:46.554Z,9.27
2023-02-14T05:43:14.716Z,9.52
2023-02-14T05:45:42.946Z,9.40
2023-02-14T05:48:11.219Z,9.82
2023-02-14T05:50:39.462Z,9.45
2023-02-14T05:53:07.649Z,9.38
2023-02-14T05:55:37.248Z,9.77
2023-02-14T05:58:05.732Z,9.57
2023-02-14T06:00:34.461Z,9.00
2023-02-14T06:03:02.943Z,9.68
2023-02-14T06:05:31.166Z,9.45
2023-02-14T06:08:00.850Z,9.70
2023-02-14T06:10:29.114Z,9.77
2023-02-14T06:12:58.654Z,9.20
2023-02-14T06:15:26.957Z,9.32
2023-02-14T06:17:56.220Z,9.10
2023-02-14T06:20:25.648Z,9.15
2023-02-14T06:22:54.919Z,8.75
2023-02-14T06:25:24.253Z,9.43
2023-02-14T06:27:52.885Z,9.15
2023-02-14T06:30:23.143Z,8.65
2023-02-14T06:32:51.423Z,9.38
2023-02-14T06:35:20.036Z,8.82
2023-02-14T06:37:48.275Z,9.15
2023-02-14T06:40:16.478Z,8.52
2023-02-14T06:42:44.965Z,8.40
2023-02-14T06:45:13.240Z,9.13
2023-02-14T06:47:42.812Z,8.32
2023-02-14T06:50:12.621Z,9.50
2023-02-14T06:52:42.110Z,9.82
2023-02-14T06:55:12.222Z,9.40
2023-02-14T06:57:40.641Z,10.45
2023-02-14T07:00:10.213Z,9.23
2023-02-14T07:02:38.614Z,9.35
2023-02-14T07:05:08.796Z,8.95
2023-02-14T07:07:37.074Z,9.65
2023-02-14T07:10:06.044Z,9.93
2023-02-14T07:12:34.836Z,9.60
2023-02-14T07:15:03.080Z,9.88
2023-02-14T07:17:31.276Z,10.52
2023-02-14T07:19:59.495Z,9.20
2023-02-14T07:22:30.367Z,9.30
2023-02-14T07:24:59.055Z,10.25
2023-02-14T07:27:27.928Z,10.18
2023-02-14T07:29:56.199Z,9.57
2023-02-14T07:32:24.653Z,9.82
2023-02-14T07:34:53.438Z,10.13
2023-02-14T07:37:21.655Z,10.05
2023-02-14T07:39:51.264Z,10.15
2023-02-14T07:42:20.143Z,10.32
2023-02-14T07:44:48.343Z,9.80
2023-02-14T07:47:16.530Z,8.50
2023-02-14T07:49:44.725Z,9.52
2023-02-14T07:52:13.108Z,8.93
2023-02-14T07:54:41.328Z,9.77
2023-02-14T07:57:10.968Z,10.40
2023-02-14T07:59:39.251Z,10.70
2023-02-14T08:02:08.256Z,10.20
2023-02-14T08:04:36.536Z,11.32
2023-02-14T08:07:04.840Z,10.27
2023-02-14T08:09:33.083Z,10.30
2023-02-14T08:12:24.173Z,9.95
2023-02-14T08:17:22.457Z,10.07
2023-02-14T08:19:50.686Z,9.77
2023-02-14T08:22:19.337Z,10.25
2023-02-14T08:24:47.529Z,9.75
2023-02-14T08:27:15.716Z,10.48
2023-02-14T08:29:43.892Z,9.45
2023-02-14T08:32:15.070Z,11.02
2023-02-14T08:34:43.430Z,10.52
2023-02-14T08:37:11.606Z,10.77
2023-02-14T08:39:40.503Z,10.18
2023-02-14T08:42:08.708Z,9.65
2023-02-14T08:44:36.894Z,9.88
2023-02-14T08:47:05.192Z,9.98
2023-02-14T08:49:34.819Z,10.38
2023-02-14T08:52:03.018Z,11.45
2023-02-14T08:54:31.298Z,9.85
2023-02-14T08:56:59.474Z,10.07
2023-02-14T08:59:27.798Z,10.13
2023-02-14T09:01:56.004Z,10.18
2023-02-14T09:04:24.565Z,10.02
2023-02-14T09:06:54.103Z,9.65
2023-02-14T09:09:22.401Z,9.82
2023-02-14T09:11:50.631Z,9.82
2023-02-14T09:14:20.899Z,10.05
2023-02-14T09:16:49.191Z,10.40
2023-02-14T09:19:17.780Z,9.35
2023-02-14T09:21:45.915Z,9.02
2023-02-14T09:24:15.586Z,9.90
2023-02-14T09:26:43.782Z,9.35
2023-02-14T09:29:13.275Z,10.32
2023-02-14T09:31:41.588Z,10.40
2023-02-14T09:34:09.880Z,10.20
2023-02-14T09:36:55.328Z,10.02
2023-02-14T09:39:25.142Z,10.70
2023-02-14T09:42:15.031Z,10.48
2023-02-14T09:44:46.565Z,11.30
2023-02-14T09:49:49.797Z,10.43
2023-02-14T09:52:21.793Z,10.07
2023-02-14T09:54:57.599Z,10.88
2023-02-14T09:57:36.988Z,10.32
2023-02-14T10:00:14.800Z,11.40
2023-02-14T10:02:57.617Z,11.25
2023-02-14T10:05:30.110Z,10.90
2023-02-14T10:08:03.436Z,10.88
2023-02-14T10:10:39.801Z,11.32
2023-02-14T10:13:16.891Z,10.70
2023-02-14T10:15:47.640Z,10.75
2023-02-14T10:18:20.269Z,10.60
2023-02-14T10:20:52.778Z,11.35
2023-02-14T10:23:33.112Z,11.48
2023-02-14T10:26:05.041Z,11.52
2023-02-14T10:28:35.536Z,11.13
2023-02-14T10:31:19.994Z,11.15
2023-02-14T10:33:57.372Z,11.30
2023-02-14T10:36:57.328Z,12.10
2023-02-14T10:39:43.972Z,11.40
2023-02-14T10:42:23.022Z,11.38
2023-02-14T10:44:58.351Z,12.05
2023-02-14T10:47:36.805Z,11.98
2023-02-14T10:50:15.394Z,13.02
2023-02-14T10:52:50.751Z,13.07
2023-02-14T10:55:31.792Z,13.20
2023-02-14T10:58:05.490Z,13.63
2023-02-14T11:00:36.364Z,12.98
2023-02-14T11:03:09.555Z,12.50
2023-02-14T11:05:45.004Z,13.73
2023-02-14T11:08:17.048Z,13.35
2023-02-14T11:10:45.454Z,12.45
2023-02-14T11:13:34.457Z,14.20
2023-02-14T11:16:06.000Z,13.50
2023-02-14T11:21:08.063Z,13.23
2023-02-14T11:23:39.169Z,12.65
2023-02-14T11:26:12.764Z,12.68
2023-02-14T11:28:55.391Z,13.18
2023-02-14T11:31:32.956Z,13.40
2023-02-14T11:34:04.838Z,14.63
2023-02-14T11:36:39.713Z,14.38
2023-02-14T11:39:20.883Z,14.68
2023-02-14T11:41:52.627Z,14.68
2023-02-14T11:44:24.847Z,13.93
2023-02-14T11:46:54.506Z,14.60
2023-02-14T11:49:29.643Z,15.13
2023-02-14T11:52:00.246Z,14.70
2023-02-14T11:54:35.950Z,13.95
2023-02-14T11:57:07.636Z,14.55
2023-02-14T11:59:42.767Z,15.18
2023-02-14T12:02:27.956Z,15.52
2023-02-14T12:04:59.782Z,15.60
2023-02-14T12:07:31.918Z,14.55
2023-02-14T12:10:32.875Z,14.90
2023-02-14T12:13:04.153Z,15.02
2023-02-14T12:15:37.871Z,16.40
2023-02-14T12:18:50.060Z,14.98
2023-02-14T12:24:06.823Z,14.93
2023-02-14T12:26:38.621Z,15.27
2023-02-14T12:29:17.179Z,15.80
2023-02-14T12:31:48.315Z,15.25
2023-02-14T12:34:19.165Z,15.18
2023-02-14T12:37:09.700Z,15.63
2023-02-14T12:39:49.505Z,14.85
2023-02-14T12:42:34.493Z,14.60
2023-02-14T12:45:11.578Z,16.25
2023-02-14T12:47:48.720Z,15.63
2023-02-14T12:50:30.386Z,16.23
2023-02-14T12:55:54.284Z,14.82
2023-02-14T12:58:35.517Z,15.35
2023-02-14T13:01:28.527Z,16.10
2023-02-14T13:04:23.541Z,16.52
2023-02-14T13:06:58.172Z,15.95
2023-02-14T13:09:35.742Z,14.98
2023-02-14T13:12:14.117Z,15.73
2023-02-14T13:14:57.408Z,14.90
2023-02-14T13:17:34.973Z,16.58
2023-02-14T13:20:33.688Z,15.70
2023-02-14T13:23:06.153Z,15.68
2023-02-14T13:25:41.916Z,14.82
2023-02-14T13:28:14.989Z,14.73
2023-02-14T13:30:44.111Z,15.93
2023-02-14T13:33:27.434Z,15.07
2023-02-14T13:35:59.944Z,14.77
2023-02-14T13:38:31.702Z,15.68
2023-02-14T13:41:05.404Z,14.68
2023-02-14T13:43:50.852Z,15.88
2023-02-14T13:46:20.990Z,15.40
2023-02-14T13:49:01.374Z,14.00
2023-02-14T13:51:48.566Z,14.40
2023-02-14T13:54:39.044Z,15.20
2023-02-14T13:57:28.155Z,14.63
2023-02-14T14:00:38.466Z,14.18
2023-02-14T14:03:08.602Z,14.02
2023-02-14T14:06:03.040Z,14.25
2023-02-14T14:08:48.031Z,14.30
2023-02-14T14:12:01.516Z,14.27
2023-02-14T14:14:39.619Z,14.00
2023-02-14T14:17:25.824Z,14.57
2023-02-14T14:19:54.541Z,13.95
2023-02-14T14:22:23.317Z,13.40
2023-02-14T14:24:59.341Z,14.15
2023-02-14T14:27:33.102Z,13.85
2023-02-14T14:30:03.499Z,13.68
2023-02-14T14:32:33.749Z,13.52
2023-02-14T14:35:04.661Z,13.35
2023-02-14T14:37:34.907Z,13.73
2023-02-14T14:40:07.110Z,14.30
2023-02-14T14:42:38.398Z,13.27
2023-02-14T14:45:10.166Z,13.63
2023-02-14T14:47:43.720Z,14.68
2023-02-14T14:50:19.299Z,13.98
2023-02-14T14:52:49.896Z,13.93
2023-02-14T14:55:22.901Z,13.07
2023-02-14T14:57:52.630Z,12.50
2023-02-14T15:00:28.622Z,12.98
2023-02-14T15:03:03.263Z,14.45
2023-02-14T15:05:33.745Z,13.43
2023-02-14T15:08:18.203Z,13.88
2023-02-14T15:10:54.428Z,14.55
2023-02-14T15:13:48.465Z,13.95
2023-02-14T15:16:21.823Z,13.75
2023-02-14T15:18:52.059Z,13.30
2023-02-14T15:21:20.500Z,13.38
2023-02-14T15:23:50.466Z,13.23
2023-02-14T15:26:29.414Z,14.07
2023-02-14T15:29:00.637Z,13.55
2023-02-14T15:31:35.094Z,13.68
2023-02-14T15:34:04.883Z,13.80
2023-02-14T15:36:34.772Z,13.50
2023-02-14T15:39:06.237Z,13.70
2023-02-14T15:41:36.029Z,13.85
2023-02-14T15:44:04.806Z,13.77
2023-02-14T15:46:36.581Z,13.40
2023-02-14T15:49:10.702Z,13.07
2023-02-14T15:51:40.622Z,12.73
2023-02-14T15:54:19.895Z,14.25
2023-02-14T15:56:52.683Z,13.63
2023-02-14T15:59:23.581Z,13.60
2023-02-14T16:01:54.611Z,10.63
2023-02-14T16:04:28.593Z,13.23
2023-02-14T16:07:23.477Z,13.48
2023-02-14T16:10:12.703Z,13.73
2023-02-14T16:12:43.079Z,12.75
2023-02-14T16:15:20.208Z,13.38
2023-02-14T16:17:49.220Z,14.23
2023-02-14T16:20:23.586Z,13.90
2023-02-14T16:22:52.076Z,13.30
2023-02-14T16:25:21.730Z,13.38
2023-02-14T16:27:51.388Z,13.05
2023-02-14T16:30:20.578Z,13.02
2023-02-14T16:32:53.712Z,13.45
2023-02-14T16:35:23.062Z,13.23
2023-02-14T16:37:52.752Z,13.15
2023-02-14T16:40:26.481Z,12.90
2023-02-14T16:42:56.087Z,13.13
2023-02-14T16:45:24.308Z,13.27
2023-02-14T16:47:52.512Z,12.48
2023-02-14T16:50:22.727Z,12.57
2023-02-14T16:52:53.725Z,13.75
2023-02-14T16:55:21.901Z,13.63
2023-02-14T16:57:51.691Z,13.15
2023-02-14T17:00:22.636Z,13.75
2023-02-14T17:02:51.271Z,13.88
2023-02-14T17:05:20.263Z,13.20
2023-02-14T17:07:48.507Z,12.77
2023-02-14T17:10:20.506Z,13.68
2023-02-14T17:12:50.039Z,13.23
2023-02-14T17:15:24.543Z,13.35
2023-02-14T17:17:57.765Z,13.30
2023-02-14T17:20:26.101Z,13.88
2023-02-14T17:22:55.522Z,14.18
2023-02-14T17:25:23.779Z,14.27
2023-02-14T17:27:52.007Z,13.25
2023-02-14T17:30:22.004Z,14.65
2023-02-14T17:32:50.789Z,14.48
2023-02-14T17:35:19.396Z,15.55
2023-02-14T17:37:47.673Z,13.48
2023-02-14T17:40:16.088Z,14.60
2023-02-14T17:42:44.991Z,14.98
2023-02-14T17:45:13.194Z,15.20
2023-02-14T17:47:43.477Z,15.40
2023-02-14T17:50:13.076Z,13.98
2023-02-14T17:52:41.597Z,14.48
2023-02-14T17:55:10.824Z,14.43
2023-02-14T17:57:40.979Z,13.82
2023-02-14T18:00:11.960Z,14.68
2023-02-14T18:02:45.185Z,14.88
2023-02-14T18:05:13.486Z,14.57
2023-02-14T18:07:41.652Z,15.05
2023-02-14T18:10:10.493Z,15.27
2023-02-14T18:12:38.797Z,13.75
2023-02-14T18:15:09.937Z,15.05
2023-02-14T18:17:38.222Z,14.80
2023-02-14T18:20:09.406Z,14.82
2023-02-14T18:22:37.823Z,27.90
2023-02-14T18:25:08.483Z,31.33
2023-02-14T18:27:36.760Z,78.00
2023-02-14T18:30:05.487Z,68.63
2023-02-14T18:32:33.732Z,82.82
2023-02-14T18:35:01.938Z,91.60
2023-02-14T18:37:31.556Z,82.68
2023-02-14T18:39:59.834Z,73.57
2023-02-14T18:42:28.098Z,77.45
2023-02-14T18:44:56.213Z,67.88
2023-02-14T18:47:24.420Z,61.45
2023-02-14T18:49:52.669Z,110.18
2023-02-14T18:52:20.875Z,162.30
2023-02-14T18:54:50.454Z,138.90
2023-02-14T18:57:18.780Z,152.98
2023-02-14T18:59:47.298Z,124.28
2023-02-14T19:02:15.572Z,94.93
2023-02-14T19:04:43.884Z,94.70
2023-02-14T19:07:12.159Z,74.65
2023-02-14T19:09:40.915Z,72.53
2023-02-14T19:12:11.695Z,85.32
2023-02-14T19:14:39.909Z,165.15
2023-02-14T19:17:08.290Z,172.65
2023-02-14T19:19:36.951Z,139.38
2023-02-14T19:22:05.301Z,197.73
2023-02-14T19:24:33.576Z,130.23
2023-02-14T19:27:01.817Z,93.85
2023-02-14T19:29:31.527Z,75.40
2023-02-14T19:31:59.811Z,67.18
2023-02-14T19:34:30.197Z,59.38
2023-02-14T19:37:00.503Z,49.72
2023-02-14T19:39:30.579Z,42.30
2023-02-14T19:41:59.833Z,34.75
2023-02-14T19:44:29.275Z,28.75
2023-02-14T19:47:00.172Z,25.63
2023-02-14T19:49:29.882Z,23.67
2023-02-14T19:51:58.881Z,20.10
2023-02-14T19:54:27.200Z,18.00
2023-02-14T19:56:56.352Z,17.88
2023-02-14T19:59:24.827Z,17.77
2023-02-14T20:01:54.580Z,17.52
2023-02-14T20:04:25.798Z,16.30
2023-02-14T20:06:55.888Z,17.10
2023-02-14T20:09:25.602Z,15.85
2023-02-14T20:11:55.957Z,15.95
2023-02-14T20:14:26.363Z,15.25
2023-02-14T20:16:56.839Z,15.15
2023-02-14T20:19:29.309Z,14.48
2023-02-14T20:21:58.305Z,13.77
2023-02-14T20:24:28.506Z,13.77
2023-02-14T20:26:57.653Z,14.05
2023-02-14T20:29:27.526Z,14.07
2023-02-14T20:31:59.998Z,13.15
2023-02-14T20:34:30.704Z,12.95
2023-02-14T20:36:59.389Z,13.27
2023-02-14T20:39:30.638Z,13.55
2023-02-14T20:41:59.225Z,13.05
2023-02-14T20:44:27.684Z,12.90
2023-02-14T20:46:57.182Z,12.95
2023-02-14T20:49:27.581Z,12.90
2023-02-14T20:51:57.328Z,13.43
2023-02-14T20:54:27.434Z,12.82
2023-02-14T20:56:55.701Z,11.65
2023-02-14T20:59:27.107Z,11.43
2023-02-14T21:04:24.411Z,11.93
2023-02-14T21:06:52.655Z,11.38
2023-02-14T21:09:22.290Z,12.13
2023-02-14T21:11:50.712Z,11.02
2023-02-14T21:14:19.096Z,11.75
2023-02-14T21:16:47.565Z,11.45
2023-02-14T21:19:15.862Z,10.93
2023-02-14T21:21:45.831Z,10.68
2023-02-14T21:24:15.586Z,11.48
2023-02-14T21:26:45.853Z,11.70
2023-02-14T21:29:14.290Z,10.63
2023-02-14T21:31:43.154Z,12.18
2023-02-14T21:34:11.734Z,11.80
2023-02-14T21:36:40.201Z,12.00
2023-02-14T21:39:08.653Z,12.48
2023-02-14T21:41:38.121Z,12.38
2023-02-14T21:44:07.743Z,12.13
2023-02-14T21:46:38.446Z,12.02
2023-02-14T21:49:24.725Z,12.50
2023-02-14T21:51:53.162Z,12.25
2023-02-14T21:54:21.478Z,11.77
2023-02-14T21:56:50.332Z,11.85
2023-02-14T21:59:20.090Z,12.38
2023-02-14T22:01:50.645Z,11.50
2023-02-14T22:04:18.923Z,11.53
2023-02-14T22:06:47.202Z,11.43
2023-02-14T22:09:17.453Z,11.88
2023-02-14T22:11:47.559Z,15.02
2023-02-14T22:14:16.156Z,46.25
2023-02-14T22:16:46.719Z,68.95
2023-02-14T22:19:16.838Z,64.75
2023-02-14T22:21:45.207Z,86.03
2023-02-14T22:24:13.978Z,70.60
2023-02-14T22:26:42.495Z,84.40
2023-02-14T22:29:12.929Z,49.47
2023-02-14T22:31:43.161Z,71.32
2023-02-14T22:34:14.771Z,49.95
2023-02-14T22:36:43.159Z,67.93
2023-02-14T22:39:13.584Z,72.53
2023-02-14T22:41:41.839Z,109.50
2023-02-14T22:44:13.588Z,76.75
2023-02-14T22:46:42.029Z,50.08
2023-02-14T22:49:10.344Z,48.55
2023-02-14T22:51:41.209Z,44.03
2023-02-14T22:54:12.339Z,42.38
2023-02-14T22:56:42.805Z,51.75
2023-02-14T22:59:15.781Z,60.85
2023-02-14T23:01:44.066Z,163.30
2023-02-14T23:04:12.660Z,232.85
2023-02-14T23:06:42.291Z,153.88
2023-02-14T23:09:11.848Z,94.90
2023-02-14T23:11:41.803Z,80.05
2023-02-14T23:14:29.561Z,56.95
2023-02-14T23:17:15.616Z,50.75
2023-02-14T23:20:02.134Z,42.25
2023-02-14T23:22:33.557Z,32.58
2023-02-14T23:25:04.432Z,31.90
2023-02-14T23:27:35.071Z,31.20
2023-02-14T23:30:05.389Z,31.38
2023-02-14T23:32:34.209Z,27.60
2023-02-14T23:35:02.400Z,24.25
2023-02-14T23:37:32.130Z,23.52
2023-02-14T23:40:00.306Z,21.15
2023-02-14T23:42:28.926Z,18.65
2023-02-14T23:45:17.773Z,18.58
2023-02-14T23:47:46.018Z,16.73
2023-02-14T23:50:14.251Z,15.15
2023-02-14T23:52:44.620Z,14.02
2023-02-14T23:55:12.971Z,13.38
2023-02-14T23:57:41.568Z,13.27
